createdAt,value
2018-08-23T00:01:18.840Z,74.70
2018-08-23T00:03:46.747Z,71.60
2018-08-23T00:06:14.388Z,75.40
2018-08-23T00:08:48.313Z,77.90
2018-08-23T00:11:21.176Z,75.90
2018-08-23T00:13:49.012Z,74.00
2018-08-23T00:16:32.720Z,75.60
2018-08-23T00:19:01.419Z,74.10
2018-08-23T00:21:29.389Z,81.00
2018-08-23T00:24:16.080Z,81.10
2018-08-23T00:26:53.041Z,78.80
2018-08-23T00:29:24.723Z,84.00
2018-08-23T00:31:55.003Z,83.40
2018-08-23T00:34:28.744Z,82.50
2018-08-23T00:36:57.017Z,84.40
2018-08-23T00:39:25.394Z,84.00
2018-08-23T00:41:58.830Z,84.00
2018-08-23T00:44:26.627Z,83.70
2018-08-23T00:46:55.592Z,82.80
2018-08-23T00:49:31.836Z,83.00
2018-08-23T00:51:59.721Z,83.70
2018-08-23T00:54:27.549Z,81.60
2018-08-23T00:56:55.339Z,85.20
2018-08-23T00:59:23.167Z,83.40
2018-08-23T01:02:06.843Z,86.60
2018-08-23T01:04:42.496Z,79.00
2018-08-23T01:07:19.432Z,81.90
2018-08-23T01:09:47.264Z,86.90
2018-08-23T01:12:15.143Z,88.20
2018-08-23T01:14:42.879Z,86.70
2018-08-23T01:17:15.585Z,89.80
2018-08-23T01:19:49.124Z,89.90
2018-08-23T01:22:16.987Z,90.10
2018-08-23T01:24:46.555Z,90.10
2018-08-23T01:27:22.215Z,89.80
2018-08-23T01:29:50.104Z,90.00
2018-08-23T01:32:35.797Z,88.10
2018-08-23T01:35:03.598Z,90.60
2018-08-23T01:37:38.974Z,91.50
2018-08-23T01:40:08.787Z,90.80
2018-08-23T01:42:37.698Z,90.70
2018-08-23T01:45:07.363Z,90.50
2018-08-23T01:47:42.674Z,89.10
2018-08-23T01:50:11.347Z,90.20
2018-08-23T01:52:45.083Z,91.20
2018-08-23T01:55:13.636Z,91.50
2018-08-23T01:57:41.538Z,92.00
2018-08-23T02:00:10.200Z,92.30
2018-08-23T02:02:38.039Z,92.60
2018-08-23T02:05:06.340Z,92.90
2018-08-23T02:07:34.199Z,93.00
2018-08-23T02:10:02.113Z,92.80
2018-08-23T02:12:29.882Z,93.00
2018-08-23T02:15:03.126Z,93.20
2018-08-23T02:18:10.320Z,93.10
2018-08-23T02:20:38.144Z,93.10
2018-08-23T02:23:05.999Z,93.50
2018-08-23T02:25:33.827Z,93.40
2018-08-23T02:28:03.965Z,93.30
2018-08-23T02:30:56.034Z,93.50
2018-08-23T02:33:24.663Z,93.40
2018-08-23T02:36:18.751Z,92.90
2018-08-23T02:39:04.483Z,93.40
2018-08-23T02:41:32.255Z,93.20
2018-08-23T02:44:00.071Z,93.20
2018-08-23T02:46:30.219Z,94.00
2018-08-23T02:48:58.031Z,94.20
2018-08-23T02:51:38.243Z,94.20
2018-08-23T02:54:10.087Z,94.10
2018-08-23T02:56:37.959Z,94.20
2018-08-23T02:59:05.780Z,94.60
2018-08-23T03:01:35.080Z,94.80
2018-08-23T03:04:10.484Z,94.70
2018-08-23T03:07:12.082Z,94.80
2018-08-23T03:09:42.809Z,95.00
2018-08-23T03:12:15.688Z,95.30
2018-08-23T03:14:43.501Z,95.20
2018-08-23T03:17:19.598Z,95.10
2018-08-23T03:19:58.631Z,95.30
2018-08-23T03:22:26.886Z,95.20
2018-08-23T03:24:54.735Z,95.00
2018-08-23T03:27:22.732Z,95.40
2018-08-23T03:29:50.707Z,95.50
2018-08-23T03:32:18.492Z,95.20
2018-08-23T03:34:46.396Z,95.00
2018-08-23T03:37:14.627Z,95.20
2018-08-23T03:39:42.427Z,94.70
2018-08-23T03:42:10.222Z,94.50
2018-08-23T03:44:38.523Z,94.80
2018-08-23T03:47:06.281Z,94.40
2018-08-23T03:49:39.848Z,94.70
2018-08-23T03:52:07.612Z,92.90
2018-08-23T03:54:35.408Z,93.90
2018-08-23T03:57:16.351Z,94.60
2018-08-23T03:59:45.303Z,94.40
2018-08-23T04:02:14.320Z,92.80
2018-08-23T04:04:43.514Z,93.00
2018-08-23T04:07:11.508Z,94.00
2018-08-23T04:09:39.580Z,93.00
2018-08-23T04:12:07.919Z,94.40
2018-08-23T04:14:36.053Z,93.80
2018-08-23T04:17:08.232Z,94.30
2018-08-23T04:19:49.279Z,94.00
2018-08-23T04:22:17.777Z,94.30
2018-08-23T04:24:56.588Z,94.30
2018-08-23T04:27:24.964Z,94.90
2018-08-23T04:29:52.746Z,95.40
2018-08-23T04:32:28.503Z,95.10
2018-08-23T04:34:58.387Z,95.60
2018-08-23T04:37:26.799Z,95.70
2018-08-23T04:40:00.379Z,95.30
2018-08-23T04:42:28.184Z,95.20
2018-08-23T04:44:57.532Z,95.80
2018-08-23T04:47:25.362Z,94.30
2018-08-23T04:49:53.272Z,94.10
2018-08-23T04:52:21.135Z,95.40
2018-08-23T04:54:48.971Z,95.20
2018-08-23T04:57:16.775Z,95.00
2018-08-23T04:59:44.664Z,93.80
2018-08-23T05:02:12.913Z,94.70
2018-08-23T05:04:41.251Z,94.80
2018-08-23T05:07:09.410Z,95.00
2018-08-23T05:09:38.731Z,94.80
2018-08-23T05:12:06.623Z,95.30
2018-08-23T05:14:34.414Z,95.00
2018-08-23T05:17:02.411Z,94.90
2018-08-23T05:19:30.483Z,92.00
2018-08-23T05:21:58.544Z,92.30
2018-08-23T05:24:27.028Z,93.70
2018-08-23T05:26:54.782Z,93.50
2018-08-23T05:29:22.737Z,93.50
2018-08-23T05:31:51.442Z,94.10
2018-08-23T05:34:19.399Z,93.40
2018-08-23T05:36:47.193Z,93.20
2018-08-23T05:39:15.324Z,92.10
2018-08-23T05:41:43.491Z,93.10
2018-08-23T05:44:20.651Z,92.70
2018-08-23T05:46:52.674Z,92.50
2018-08-23T05:49:21.195Z,92.50
2018-08-23T05:51:48.971Z,92.30
2018-08-23T05:54:16.725Z,92.10
2018-08-23T05:56:44.571Z,92.30
2018-08-23T05:59:14.279Z,91.20
2018-08-23T06:01:42.684Z,91.40
2018-08-23T06:04:10.675Z,92.30
2018-08-23T06:06:38.735Z,92.20
2018-08-23T06:09:10.719Z,91.50
2018-08-23T06:11:38.779Z,91.50
2018-08-23T06:14:06.677Z,85.60
2018-08-23T06:16:46.991Z,85.00
2018-08-23T06:19:14.828Z,87.90
2018-08-23T06:21:42.604Z,88.90
2018-08-23T06:24:10.407Z,89.30
2018-08-23T06:26:47.419Z,84.90
2018-08-23T06:29:19.652Z,88.00
2018-08-23T06:31:54.928Z,88.70
2018-08-23T06:34:24.090Z,86.70
2018-08-23T06:36:52.822Z,87.10
2018-08-23T06:39:20.607Z,85.40
2018-08-23T06:41:48.488Z,84.30
2018-08-23T06:44:16.278Z,84.00
2018-08-23T06:46:44.128Z,84.50
2018-08-23T06:49:11.867Z,84.30
2018-08-23T06:51:39.682Z,83.00
2018-08-23T06:54:07.521Z,84.30
2018-08-23T06:56:36.940Z,84.30
2018-08-23T06:59:04.978Z,82.50
2018-08-23T07:01:39.453Z,83.10
2018-08-23T07:04:10.215Z,82.40
2018-08-23T07:06:38.097Z,82.50
2018-08-23T07:09:16.713Z,83.30
2018-08-23T07:11:44.836Z,82.20
2018-08-23T07:14:13.789Z,80.60
2018-08-23T07:16:42.827Z,79.90
2018-08-23T07:19:29.152Z,79.00
2018-08-23T07:21:58.427Z,78.40
2018-08-23T07:24:39.783Z,77.90
2018-08-23T07:27:09.634Z,78.80
2018-08-23T07:29:37.380Z,78.40
2018-08-23T07:32:06.675Z,78.20
2018-08-23T07:34:34.962Z,76.70
2018-08-23T07:37:08.468Z,77.10
2018-08-23T07:39:36.267Z,77.00
2018-08-23T07:42:04.169Z,76.20
2018-08-23T07:44:31.999Z,76.00
2018-08-23T07:46:59.757Z,75.80
2018-08-23T07:49:27.475Z,74.90
2018-08-23T07:51:55.321Z,73.40
2018-08-23T07:54:23.123Z,72.10
2018-08-23T07:56:50.972Z,72.20
2018-08-23T07:59:18.827Z,70.70
2018-08-23T08:01:46.675Z,70.10
2018-08-23T08:04:14.516Z,70.20
2018-08-23T08:06:42.368Z,70.30
2018-08-23T08:09:10.912Z,69.90
2018-08-23T08:11:51.242Z,69.70
2018-08-23T08:14:24.850Z,69.10
2018-08-23T08:16:57.316Z,68.80
2018-08-23T08:19:25.466Z,67.90
2018-08-23T08:21:53.271Z,66.70
2018-08-23T08:24:21.075Z,66.00
2018-08-23T08:26:48.837Z,67.20
2018-08-23T08:29:21.233Z,65.20
2018-08-23T08:31:49.009Z,65.30
2018-08-23T08:34:16.863Z,66.40
2018-08-23T08:36:44.699Z,65.10
2018-08-23T08:39:12.486Z,65.10
2018-08-23T08:41:40.344Z,65.40
2018-08-23T08:44:08.196Z,65.30
2018-08-23T08:46:35.980Z,65.00
2018-08-23T08:49:03.842Z,64.90
2018-08-23T08:51:33.192Z,65.10
2018-08-23T08:54:02.368Z,64.90
2018-08-23T08:56:37.766Z,64.70
2018-08-23T08:59:05.639Z,62.90
2018-08-23T09:01:33.512Z,62.90
2018-08-23T09:04:01.615Z,62.00
2018-08-23T09:06:49.307Z,63.00
2018-08-23T09:09:36.856Z,62.00
2018-08-23T09:12:05.997Z,63.10
2018-08-23T09:14:34.476Z,61.80
2018-08-23T09:18:05.815Z,61.20
2018-08-23T09:20:33.626Z,59.80
2018-08-23T09:23:01.323Z,59.70
2018-08-23T09:25:34.884Z,59.00
2018-08-23T09:28:02.665Z,59.20
2018-08-23T09:30:31.685Z,58.60
2018-08-23T09:33:05.195Z,58.50
2018-08-23T09:35:33.578Z,58.00
2018-08-23T09:38:10.313Z,58.70
2018-08-23T09:40:38.187Z,58.10
2018-08-23T09:43:05.984Z,59.20
2018-08-23T09:45:35.398Z,59.30
2018-08-23T09:48:03.362Z,58.40
2018-08-23T09:50:31.168Z,58.10
2018-08-23T09:52:58.927Z,57.00
2018-08-23T09:55:28.512Z,55.70
2018-08-23T09:57:56.799Z,55.00
2018-08-23T10:00:25.001Z,54.20
2018-08-23T10:02:58.443Z,53.70
2018-08-23T10:05:31.870Z,53.60
2018-08-23T10:08:05.179Z,53.40
2018-08-23T10:10:38.576Z,52.30
2018-08-23T10:13:12.083Z,53.20
2018-08-23T10:15:44.783Z,53.00
2018-08-23T10:18:18.308Z,53.10
2018-08-23T10:20:53.631Z,53.20
2018-08-23T10:23:23.311Z,52.90
2018-08-23T10:25:56.306Z,52.20
2018-08-23T10:28:25.179Z,51.70
2018-08-23T10:30:53.304Z,51.40
2018-08-23T10:33:21.029Z,50.20
2018-08-23T10:35:56.318Z,49.90
2018-08-23T10:38:26.331Z,49.70
2018-08-23T10:40:58.657Z,49.00
2018-08-23T10:43:32.143Z,49.40
2018-08-23T10:46:03.532Z,48.00
2018-08-23T10:48:31.391Z,47.80
2018-08-23T10:50:59.149Z,47.90
2018-08-23T10:53:26.920Z,48.20
2018-08-23T10:55:54.668Z,46.00
2018-08-23T10:58:22.384Z,47.20
2018-08-23T11:00:50.096Z,44.90
2018-08-23T11:03:17.883Z,43.80
2018-08-23T11:05:45.628Z,42.40
2018-08-23T11:08:18.988Z,41.40
2018-08-23T11:10:52.331Z,41.80
2018-08-23T11:13:25.869Z,40.20
2018-08-23T11:15:59.465Z,40.20
2018-08-23T11:18:33.006Z,42.80
2018-08-23T11:21:00.808Z,43.10
2018-08-23T11:23:28.635Z,41.90
2018-08-23T11:25:56.492Z,42.50
2018-08-23T11:28:25.517Z,43.40
2018-08-23T11:30:53.912Z,40.90
2018-08-23T11:33:21.846Z,40.00
2018-08-23T11:35:49.643Z,39.50
2018-08-23T11:38:17.410Z,38.80
2018-08-23T11:40:45.267Z,38.30
2018-08-23T11:43:13.137Z,37.10
2018-08-23T11:45:40.955Z,35.80
2018-08-23T11:48:08.698Z,37.50
2018-08-23T11:50:36.917Z,34.60
2018-08-23T11:53:05.007Z,34.20
2018-08-23T11:55:32.756Z,33.00
2018-08-23T11:58:00.626Z,34.30
2018-08-23T12:00:28.456Z,35.30
2018-08-23T12:02:56.227Z,32.60
2018-08-23T12:05:24.059Z,32.20
2018-08-23T12:07:53.219Z,32.80
2018-08-23T12:10:22.248Z,30.80
2018-08-23T12:12:51.514Z,30.50
2018-08-23T12:15:28.135Z,31.70
2018-08-23T12:17:56.231Z,30.00
2018-08-23T12:20:24.028Z,31.30
2018-08-23T12:22:51.827Z,32.20
2018-08-23T12:25:19.605Z,30.20
2018-08-23T12:27:59.831Z,31.00
2018-08-23T12:30:27.750Z,31.60
2018-08-23T12:32:55.651Z,33.70
2018-08-23T12:35:23.746Z,31.40
2018-08-23T12:38:00.475Z,31.80
2018-08-23T12:40:35.952Z,30.90
2018-08-23T12:43:07.820Z,31.90
2018-08-23T12:45:42.800Z,33.50
2018-08-23T12:48:11.631Z,31.00
2018-08-23T12:50:40.339Z,32.00
2018-08-23T12:53:08.130Z,31.80
2018-08-23T12:55:36.098Z,31.80
2018-08-23T12:58:08.565Z,31.40
2018-08-23T13:00:36.831Z,32.20
2018-08-23T13:03:05.238Z,30.80
2018-08-23T13:05:33.307Z,30.70
2018-08-23T13:08:01.063Z,31.60
2018-08-23T13:10:28.860Z,31.50
2018-08-23T13:12:56.643Z,31.80
2018-08-23T13:15:24.492Z,29.70
2018-08-23T13:17:52.344Z,29.50
2018-08-23T13:20:20.096Z,30.00
2018-08-23T13:22:47.905Z,28.70
2018-08-23T13:25:17.255Z,29.20
2018-08-23T13:27:45.728Z,29.20
2018-08-23T13:30:13.540Z,31.70
2018-08-23T13:32:41.360Z,30.90
2018-08-23T13:35:09.171Z,31.60
2018-08-23T13:37:36.912Z,31.30
2018-08-23T13:40:04.859Z,30.60
2018-08-23T13:42:32.688Z,30.80
2018-08-23T13:45:00.477Z,30.90
2018-08-23T13:47:28.201Z,30.60
2018-08-23T13:49:56.003Z,31.80
2018-08-23T13:52:23.783Z,33.50
2018-08-23T13:54:51.572Z,33.20
2018-08-23T13:57:19.319Z,34.40
2018-08-23T13:59:47.115Z,34.20
2018-08-23T14:02:14.918Z,34.80
2018-08-23T14:04:42.632Z,32.10
2018-08-23T14:07:10.452Z,31.90
2018-08-23T14:09:38.271Z,33.90
2018-08-23T14:12:06.127Z,32.80
2018-08-23T14:14:33.928Z,32.60
2018-08-23T14:17:01.737Z,33.40
2018-08-23T14:19:29.551Z,32.20
2018-08-23T14:21:57.299Z,34.00
2018-08-23T14:24:25.092Z,34.30
2018-08-23T14:26:52.883Z,34.10
2018-08-23T14:29:20.644Z,33.00
2018-08-23T14:31:48.428Z,34.20
2018-08-23T14:34:16.280Z,35.20
2018-08-23T14:36:44.168Z,35.90
2018-08-23T14:39:12.068Z,33.90
2018-08-23T14:41:40.019Z,34.20
2018-08-23T14:44:08.419Z,35.20
2018-08-23T14:46:41.937Z,35.80
2018-08-23T14:49:12.901Z,36.40
2018-08-23T14:51:40.683Z,36.60
2018-08-23T14:54:14.287Z,37.50
2018-08-23T14:56:47.699Z,36.00
2018-08-23T14:59:15.478Z,36.80
2018-08-23T15:01:43.315Z,36.50
2018-08-23T15:04:11.099Z,37.80
2018-08-23T15:06:38.848Z,37.70
2018-08-23T15:09:07.729Z,37.70
2018-08-23T15:11:35.479Z,38.30
2018-08-23T15:14:03.356Z,37.70
2018-08-23T15:16:31.336Z,37.20
2018-08-23T15:18:59.207Z,38.00
2018-08-23T15:21:26.987Z,38.20
2018-08-23T15:23:54.923Z,38.70
2018-08-23T15:26:25.044Z,38.60
2018-08-23T15:28:52.624Z,39.30
2018-08-23T15:31:20.408Z,38.30
2018-08-23T15:33:48.212Z,38.80
2018-08-23T15:36:16.041Z,39.10
2018-08-23T15:38:43.867Z,38.50
2018-08-23T15:41:11.855Z,38.00
2018-08-23T15:43:39.668Z,37.60
2018-08-23T15:46:07.469Z,38.60
2018-08-23T15:48:35.285Z,38.20
2018-08-23T15:51:03.183Z,38.70
2018-08-23T15:53:30.968Z,39.30
2018-08-23T15:55:58.819Z,38.80
2018-08-23T15:58:26.575Z,39.30
2018-08-23T16:00:54.361Z,38.90
2018-08-23T16:03:22.084Z,38.30
2018-08-23T16:05:49.847Z,39.60
2018-08-23T16:08:21.088Z,40.00
2018-08-23T16:10:48.813Z,39.40
2018-08-23T16:13:16.615Z,39.90
2018-08-23T16:15:44.388Z,39.20
2018-08-23T16:18:17.884Z,39.70
2018-08-23T16:20:51.199Z,39.50
2018-08-23T16:23:19.968Z,39.30
2018-08-23T16:25:47.869Z,40.20
2018-08-23T16:28:15.665Z,39.10
2018-08-23T16:30:44.043Z,39.70
2018-08-23T16:33:12.399Z,38.60
2018-08-23T16:35:40.879Z,39.40
2018-08-23T16:38:08.732Z,39.60
2018-08-23T16:40:36.531Z,38.60
2018-08-23T16:43:04.607Z,39.20
2018-08-23T16:45:32.441Z,40.00
2018-08-23T16:50:34.630Z,39.20
2018-08-23T16:53:02.389Z,39.40
2018-08-23T16:55:30.180Z,39.30
2018-08-23T16:57:57.987Z,39.50
2018-08-23T17:00:25.784Z,39.90
2018-08-23T17:02:53.527Z,40.00
2018-08-23T17:05:21.394Z,40.00
2018-08-23T17:07:49.259Z,39.80
2018-08-23T17:10:17.106Z,39.80
2018-08-23T17:12:44.840Z,39.80
2018-08-23T17:15:13.849Z,40.50
2018-08-23T17:17:52.340Z,40.90
2018-08-23T17:20:20.441Z,40.80
2018-08-23T17:22:48.600Z,41.00
2018-08-23T17:25:16.481Z,41.60
2018-08-23T17:27:44.240Z,41.10
2018-08-23T17:30:12.192Z,41.10
2018-08-23T17:32:40.184Z,41.00
2018-08-23T17:35:08.132Z,41.50
2018-08-23T17:37:36.156Z,42.00
2018-08-23T17:40:04.609Z,41.60
2018-08-23T17:42:38.295Z,42.20
2018-08-23T17:45:07.854Z,42.50
2018-08-23T17:47:35.772Z,42.10
2018-08-23T17:50:03.950Z,42.50
2018-08-23T17:52:31.852Z,42.50
2018-08-23T17:54:59.712Z,42.60
2018-08-23T17:57:27.483Z,43.00
2018-08-23T17:59:55.547Z,43.70
2018-08-23T18:02:23.388Z,43.80
2018-08-23T18:04:51.704Z,43.90
2018-08-23T18:07:19.548Z,44.00
2018-08-23T18:09:48.466Z,44.10
2018-08-23T18:12:16.395Z,44.90
2018-08-23T18:14:44.360Z,44.60
2018-08-23T18:17:13.188Z,45.10
2018-08-23T18:19:41.193Z,45.10
2018-08-23T18:22:09.240Z,45.40
2018-08-23T18:24:37.223Z,45.40
2018-08-23T18:27:05.705Z,45.70
2018-08-23T18:29:33.794Z,45.90
2018-08-23T18:32:01.720Z,46.00
2018-08-23T18:34:29.585Z,45.90
2018-08-23T18:36:58.805Z,46.50
2018-08-23T18:39:27.031Z,46.70
2018-08-23T18:41:54.941Z,46.70
2018-08-23T18:44:23.515Z,46.70
2018-08-23T18:46:51.616Z,47.00
2018-08-23T18:49:19.595Z,47.60
2018-08-23T18:51:47.552Z,47.10
2018-08-23T18:54:15.497Z,48.00
2018-08-23T18:56:44.951Z,47.90
2018-08-23T18:59:12.791Z,48.10
2018-08-23T19:01:41.785Z,48.10
2018-08-23T19:04:09.641Z,48.10
2018-08-23T19:06:37.851Z,48.00
2018-08-23T19:09:11.998Z,48.10
2018-08-23T19:11:39.811Z,48.10
2018-08-23T19:14:07.800Z,48.10
2018-08-23T19:16:41.457Z,50.60
2018-08-23T19:19:10.297Z,51.00
2018-08-23T19:21:38.473Z,52.30
2018-08-23T19:24:06.271Z,51.60
2018-08-23T19:26:34.129Z,52.90
2018-08-23T19:29:02.308Z,53.50
2018-08-23T19:31:30.326Z,54.20
2018-08-23T19:33:58.101Z,55.70
2018-08-23T19:36:25.892Z,60.60
2018-08-23T19:38:53.780Z,63.80
2018-08-23T19:41:21.569Z,67.50
2018-08-23T19:43:49.352Z,71.00
2018-08-23T19:46:22.843Z,71.70
2018-08-23T19:48:57.619Z,71.50
2018-08-23T19:51:27.033Z,75.40
2018-08-23T19:53:54.871Z,76.40
2018-08-23T19:56:30.389Z,76.90
2018-08-23T19:58:59.212Z,76.40
2018-08-23T20:01:27.631Z,77.30
2018-08-23T20:04:01.585Z,76.10
2018-08-23T20:06:40.567Z,74.10
2018-08-23T20:09:09.788Z,75.60
2018-08-23T20:11:37.939Z,74.10
2018-08-23T20:14:07.600Z,75.60
2018-08-23T20:16:36.933Z,77.90
2018-08-23T20:19:05.352Z,76.50
2018-08-23T20:21:35.315Z,76.60
2018-08-23T20:24:07.724Z,76.20
2018-08-23T20:26:36.123Z,73.30
2018-08-23T20:29:07.212Z,74.70
2018-08-23T20:31:36.651Z,74.30
2018-08-23T20:34:04.671Z,75.60
2018-08-23T20:36:32.751Z,74.10
2018-08-23T20:39:00.643Z,75.80
2018-08-23T20:41:30.318Z,75.80
2018-08-23T20:43:58.463Z,77.00
2018-08-23T20:46:28.971Z,76.40
2018-08-23T20:48:59.077Z,75.60
2018-08-23T20:51:30.769Z,76.90
2018-08-23T20:54:01.689Z,76.40
2018-08-23T20:56:31.134Z,74.60
2018-08-23T20:59:04.369Z,77.20
2018-08-23T21:01:32.373Z,77.20
2018-08-23T21:04:03.360Z,75.10
2018-08-23T21:06:35.609Z,76.30
2018-08-23T21:09:08.310Z,75.00
2018-08-23T21:11:36.621Z,74.70
2018-08-23T21:14:06.377Z,77.30
2018-08-23T21:16:38.143Z,77.80
2018-08-23T21:19:11.993Z,77.50
2018-08-23T21:21:41.103Z,75.10
2018-08-23T21:24:14.980Z,77.20
2018-08-23T21:26:45.064Z,75.70
2018-08-23T21:29:18.805Z,79.50
2018-08-23T21:31:50.204Z,74.50
2018-08-23T21:34:22.226Z,78.90
2018-08-23T21:36:51.781Z,79.20
2018-08-23T21:39:20.086Z,79.50
2018-08-23T21:41:48.151Z,80.00
2018-08-23T21:44:17.707Z,79.80
2018-08-23T21:46:45.547Z,77.40
2018-08-23T21:49:17.951Z,78.30
2018-08-23T21:51:49.344Z,79.50
2018-08-23T21:54:17.139Z,79.60
2018-08-23T21:56:47.568Z,82.00
2018-08-23T21:59:20.837Z,80.30
2018-08-23T22:01:53.979Z,82.20
2018-08-23T22:04:22.299Z,81.70
2018-08-23T22:06:50.988Z,79.20
2018-08-23T22:09:24.997Z,81.90
2018-08-23T22:11:53.371Z,80.80
2018-08-23T22:14:25.288Z,82.30
2018-08-23T22:16:53.160Z,82.60
2018-08-23T22:19:20.904Z,78.60
2018-08-23T22:21:50.267Z,81.60
2018-08-23T22:24:18.000Z,81.20
2018-08-23T22:26:45.873Z,82.40
2018-08-23T22:29:13.558Z,84.20
2018-08-23T22:31:41.391Z,83.20
2018-08-23T22:34:09.141Z,84.20
2018-08-23T22:36:36.971Z,81.80
2018-08-23T22:39:06.613Z,79.10
2018-08-23T22:41:34.359Z,83.10
2018-08-23T22:44:02.887Z,80.60
2018-08-23T22:46:29.924Z,83.10
2018-08-23T22:48:57.799Z,77.00
2018-08-23T22:51:25.602Z,79.30
2018-08-23T22:53:53.514Z,80.10
2018-08-23T22:56:21.269Z,84.10
2018-08-23T22:58:49.148Z,86.40
2018-08-23T23:01:16.967Z,84.30
2018-08-23T23:03:50.351Z,83.90
2018-08-23T23:06:18.199Z,88.20
2018-08-23T23:08:45.940Z,87.20
2018-08-23T23:11:13.703Z,84.70
2018-08-23T23:13:41.527Z,86.60
2018-08-23T23:16:09.343Z,86.00
2018-08-23T23:18:37.116Z,86.40
2018-08-23T23:21:04.955Z,85.10
2018-08-23T23:23:32.764Z,87.70
2018-08-23T23:26:00.596Z,88.40
2018-08-23T23:28:28.450Z,88.90
2018-08-23T23:30:56.290Z,84.80
2018-08-23T23:33:24.116Z,87.40
2018-08-23T23:35:51.892Z,89.10
2018-08-23T23:38:19.682Z,87.50
2018-08-23T23:40:47.427Z,89.20
2018-08-23T23:43:15.168Z,90.00
2018-08-23T23:45:42.995Z,90.00
2018-08-23T23:48:10.735Z,90.40
2018-08-23T23:50:38.581Z,87.20
2018-08-23T23:53:06.543Z,87.70
2018-08-23T23:55:34.354Z,89.50
2018-08-23T23:58:02.171Z,84.60
